sensor_id;sensor_type;location;lat;lon;timestamp;P1;durP1;ratioP1;P2;durP2;ratioP2
4210;SDS011;2119;48.828;12.396;2023-03-12T00:04:00;5.70;;;4.93;;
4210;SDS011;2119;48.828;12.396;2023-03-12T00:09:01;8.83;;;5.13;;
4210;SDS011;2119;48.828;12.396;2023-03-12T00:14:01;5.50;;;5.00;;
4210;SDS011;2119;48.828;12.396;2023-03-12T00:19:01;9.10;;;5.45;;
4210;SDS011;2119;48.828;12.396;2023-03-12T00:24:02;4.97;;;4.20;;
4210;SDS011;2119;48.828;12.396;2023-03-12T00:29:03;4.77;;;4.37;;
4210;SDS011;2119;48.828;12.396;2023-03-12T00:34:03;4.80;;;4.30;;
4210;SDS011;2119;48.828;12.396;2023-03-12T00:39:04;6.25;;;4.80;;
4210;SDS011;2119;48.828;12.396;2023-03-12T00:44:04;5.82;;;4.85;;
4210;SDS011;2119;48.828;12.396;2023-03-12T00:49:05;7.23;;;5.40;;
4210;SDS011;2119;48.828;12.396;2023-03-12T00:54:05;5.78;;;4.32;;
4210;SDS011;2119;48.828;12.396;2023-03-12T00:59:06;10.77;;;6.85;;
4210;SDS011;2119;48.828;12.396;2023-03-12T01:04:07;11.30;;;6.93;;
4210;SDS011;2119;48.828;12.396;2023-03-12T01:09:07;8.30;;;6.20;;
4210;SDS011;2119;48.828;12.396;2023-03-12T01:14:08;9.03;;;6.23;;
4210;SDS011;2119;48.828;12.396;2023-03-12T01:19:08;6.50;;;5.77;;
4210;SDS011;2119;48.828;12.396;2023-03-12T01:24:09;8.18;;;5.60;;
4210;SDS011;2119;48.828;12.396;2023-03-12T01:29:09;8.43;;;6.82;;
4210;SDS011;2119;48.828;12.396;2023-03-12T01:34:10;8.85;;;6.18;;
4210;SDS011;2119;48.828;12.396;2023-03-12T01:39:12;8.07;;;5.63;;
4210;SDS011;2119;48.828;12.396;2023-03-12T01:44:13;10.10;;;6.43;;
4210;SDS011;2119;48.828;12.396;2023-03-12T01:49:18;8.37;;;6.00;;
4210;SDS011;2119;48.828;12.396;2023-03-12T01:54:20;6.50;;;5.80;;
4210;SDS011;2119;48.828;12.396;2023-03-12T01:59:26;10.77;;;6.20;;
4210;SDS011;2119;48.828;12.396;2023-03-12T02:04:28;5.67;;;4.50;;
4210;SDS011;2119;48.828;12.396;2023-03-12T02:09:34;7.77;;;5.43;;
4210;SDS011;2119;48.828;12.396;2023-03-12T02:14:35;9.47;;;5.00;;
4210;SDS011;2119;48.828;12.396;2023-03-12T02:19:47;6.07;;;5.30;;
4210;SDS011;2119;48.828;12.396;2023-03-12T02:24:57;7.47;;;5.80;;
4210;SDS011;2119;48.828;12.396;2023-03-12T02:30:03;5.93;;;4.70;;
4210;SDS011;2119;48.828;12.396;2023-03-12T02:35:04;6.53;;;5.10;;
4210;SDS011;2119;48.828;12.396;2023-03-12T02:40:16;7.53;;;4.73;;
4210;SDS011;2119;48.828;12.396;2023-03-12T02:45:17;6.23;;;5.60;;
4210;SDS011;2119;48.828;12.396;2023-03-12T02:50:19;5.65;;;4.78;;
4210;SDS011;2119;48.828;12.396;2023-03-12T02:55:20;5.27;;;4.70;;
4210;SDS011;2119;48.828;12.396;2023-03-12T03:00:20;7.90;;;4.22;;
4210;SDS011;2119;48.828;12.396;2023-03-12T03:05:21;5.40;;;4.63;;
4210;SDS011;2119;48.828;12.396;2023-03-12T03:10:21;4.20;;;3.63;;
4210;SDS011;2119;48.828;12.396;2023-03-12T03:15:22;3.97;;;3.58;;
4210;SDS011;2119;48.828;12.396;2023-03-12T03:20:22;3.97;;;3.67;;
4210;SDS011;2119;48.828;12.396;2023-03-12T03:25:24;3.37;;;3.07;;
4210;SDS011;2119;48.828;12.396;2023-03-12T03:30:25;4.10;;;3.70;;
4210;SDS011;2119;48.828;12.396;2023-03-12T03:35:25;4.07;;;3.45;;
4210;SDS011;2119;48.828;12.396;2023-03-12T03:40:25;5.32;;;3.33;;
4210;SDS011;2119;48.828;12.396;2023-03-12T03:45:25;5.47;;;3.63;;
4210;SDS011;2119;48.828;12.396;2023-03-12T03:50:26;4.07;;;3.40;;
4210;SDS011;2119;48.828;12.396;2023-03-12T03:55:26;7.65;;;4.10;;
4210;SDS011;2119;48.828;12.396;2023-03-12T04:00:26;4.65;;;3.90;;
4210;SDS011;2119;48.828;12.396;2023-03-12T04:05:26;5.05;;;4.00;;
4210;SDS011;2119;48.828;12.396;2023-03-12T04:10:27;5.85;;;4.00;;
4210;SDS011;2119;48.828;12.396;2023-03-12T04:15:28;6.00;;;4.30;;
4210;SDS011;2119;48.828;12.396;2023-03-12T04:20:28;5.50;;;4.75;;
4210;SDS011;2119;48.828;12.396;2023-03-12T04:25:29;5.47;;;4.43;;
4210;SDS011;2119;48.828;12.396;2023-03-12T04:30:29;5.23;;;3.87;;
4210;SDS011;2119;48.828;12.396;2023-03-12T04:35:29;4.40;;;3.80;;
4210;SDS011;2119;48.828;12.396;2023-03-12T04:40:30;3.90;;;3.50;;
4210;SDS011;2119;48.828;12.396;2023-03-12T04:45:30;5.40;;;4.10;;
4210;SDS011;2119;48.828;12.396;2023-03-12T04:50:30;6.57;;;4.63;;
4210;SDS011;2119;48.828;12.396;2023-03-12T04:55:31;4.65;;;3.63;;
4210;SDS011;2119;48.828;12.396;2023-03-12T05:00:31;7.03;;;5.00;;
4210;SDS011;2119;48.828;12.396;2023-03-12T05:05:31;4.30;;;3.90;;
4210;SDS011;2119;48.828;12.396;2023-03-12T05:10:31;4.90;;;4.40;;
4210;SDS011;2119;48.828;12.396;2023-03-12T05:15:32;7.03;;;4.50;;
4210;SDS011;2119;48.828;12.396;2023-03-12T05:20:35;6.47;;;4.40;;
4210;SDS011;2119;48.828;12.396;2023-03-12T05:25:39;4.20;;;3.80;;
4210;SDS011;2119;48.828;12.396;2023-03-12T05:30:39;4.00;;;3.60;;
4210;SDS011;2119;48.828;12.396;2023-03-12T05:35:39;5.07;;;4.15;;
4210;SDS011;2119;48.828;12.396;2023-03-12T05:40:40;4.15;;;3.75;;
4210;SDS011;2119;48.828;12.396;2023-03-12T05:45:40;3.70;;;3.35;;
4210;SDS011;2119;48.828;12.396;2023-03-12T05:50:40;4.28;;;3.88;;
4210;SDS011;2119;48.828;12.396;2023-03-12T05:55:40;4.07;;;3.40;;
4210;SDS011;2119;48.828;12.396;2023-03-12T06:00:41;4.88;;;3.55;;
4210;SDS011;2119;48.828;12.396;2023-03-12T06:05:43;4.93;;;3.77;;
4210;SDS011;2119;48.828;12.396;2023-03-12T06:10:43;8.53;;;4.60;;
4210;SDS011;2119;48.828;12.396;2023-03-12T06:15:43;5.20;;;4.70;;
4210;SDS011;2119;48.828;12.396;2023-03-12T06:20:44;4.80;;;3.88;;
4210;SDS011;2119;48.828;12.396;2023-03-12T06:25:44;4.87;;;4.37;;
4210;SDS011;2119;48.828;12.396;2023-03-12T06:30:44;5.80;;;4.40;;
4210;SDS011;2119;48.828;12.396;2023-03-12T06:35:44;6.32;;;4.75;;
4210;SDS011;2119;48.828;12.396;2023-03-12T06:40:52;15.25;;;9.25;;
4210;SDS011;2119;48.828;12.396;2023-03-12T06:45:53;6.10;;;5.40;;
4210;SDS011;2119;48.828;12.396;2023-03-12T06:50:54;8.87;;;5.33;;
4210;SDS011;2119;48.828;12.396;2023-03-12T06:55:54;7.07;;;4.30;;
4210;SDS011;2119;48.828;12.396;2023-03-12T07:00:54;5.93;;;5.32;;
4210;SDS011;2119;48.828;12.396;2023-03-12T07:05:55;7.85;;;6.18;;
4210;SDS011;2119;48.828;12.396;2023-03-12T07:10:56;7.30;;;4.60;;
4210;SDS011;2119;48.828;12.396;2023-03-12T07:15:57;5.50;;;4.37;;
4210;SDS011;2119;48.828;12.396;2023-03-12T07:20:57;5.25;;;4.75;;
4210;SDS011;2119;48.828;12.396;2023-03-12T07:25:57;11.80;;;9.07;;
4210;SDS011;2119;48.828;12.396;2023-03-12T07:31:01;21.33;;;15.02;;
4210;SDS011;2119;48.828;12.396;2023-03-12T07:36:02;17.17;;;11.50;;
4210;SDS011;2119;48.828;12.396;2023-03-12T07:41:02;12.97;;;8.23;;
4210;SDS011;2119;48.828;12.396;2023-03-12T07:46:03;13.82;;;10.32;;
4210;SDS011;2119;48.828;12.396;2023-03-12T07:51:03;7.47;;;6.60;;
4210;SDS011;2119;48.828;12.396;2023-03-12T07:56:03;10.77;;;8.03;;
4210;SDS011;2119;48.828;12.396;2023-03-12T08:01:04;20.83;;;12.97;;
4210;SDS011;2119;48.828;12.396;2023-03-12T08:06:05;13.10;;;8.60;;
4210;SDS011;2119;48.828;12.396;2023-03-12T08:11:06;13.70;;;8.67;;
4210;SDS011;2119;48.828;12.396;2023-03-12T08:16:06;9.73;;;6.90;;
4210;SDS011;2119;48.828;12.396;2023-03-12T08:21:07;10.97;;;7.30;;
4210;SDS011;2119;48.828;12.396;2023-03-12T08:26:07;8.82;;;6.55;;
4210;SDS011;2119;48.828;12.396;2023-03-12T08:31:07;10.05;;;7.68;;
4210;SDS011;2119;48.828;12.396;2023-03-12T08:36:09;7.70;;;5.87;;
4210;SDS011;2119;48.828;12.396;2023-03-12T08:41:09;12.30;;;7.53;;
4210;SDS011;2119;48.828;12.396;2023-03-12T08:46:09;7.77;;;6.50;;
4210;SDS011;2119;48.828;12.396;2023-03-12T08:51:09;8.55;;;6.10;;
4210;SDS011;2119;48.828;12.396;2023-03-12T08:56:10;10.43;;;7.45;;
4210;SDS011;2119;48.828;12.396;2023-03-12T09:01:11;8.30;;;7.10;;
4210;SDS011;2119;48.828;12.396;2023-03-12T09:06:12;10.87;;;8.33;;
4210;SDS011;2119;48.828;12.396;2023-03-12T09:11:15;9.23;;;6.97;;
4210;SDS011;2119;48.828;12.396;2023-03-12T09:16:16;14.17;;;8.07;;
4210;SDS011;2119;48.828;12.396;2023-03-12T09:21:16;8.65;;;7.35;;
4210;SDS011;2119;48.828;12.396;2023-03-12T09:26:17;11.27;;;8.97;;
4210;SDS011;2119;48.828;12.396;2023-03-12T09:31:17;7.80;;;6.70;;
4210;SDS011;2119;48.828;12.396;2023-03-12T09:36:18;12.07;;;6.53;;
4210;SDS011;2119;48.828;12.396;2023-03-12T09:41:20;8.53;;;6.70;;
4210;SDS011;2119;48.828;12.396;2023-03-12T09:47:04;7.37;;;5.57;;
4210;SDS011;2119;48.828;12.396;2023-03-12T09:51:50;4.90;;;4.40;;
4210;SDS011;2119;48.828;12.396;2023-03-12T09:56:54;5.43;;;4.63;;
4210;SDS011;2119;48.828;12.396;2023-03-12T10:02:00;4.40;;;4.00;;
4210;SDS011;2119;48.828;12.396;2023-03-12T10:17:47;4.73;;;4.13;;
4210;SDS011;2119;48.828;12.396;2023-03-12T10:22:59;4.50;;;3.60;;
4210;SDS011;2119;48.828;12.396;2023-03-12T10:28:11;7.77;;;4.50;;
4210;SDS011;2119;48.828;12.396;2023-03-12T10:33:15;7.83;;;4.57;;
4210;SDS011;2119;48.828;12.396;2023-03-12T10:38:17;10.70;;;5.03;;
4210;SDS011;2119;48.828;12.396;2023-03-12T10:43:26;5.30;;;4.80;;
4210;SDS011;2119;48.828;12.396;2023-03-12T10:48:27;5.60;;;5.10;;
4210;SDS011;2119;48.828;12.396;2023-03-12T10:53:38;6.87;;;5.57;;
4210;SDS011;2119;48.828;12.396;2023-03-12T10:58:58;6.20;;;5.43;;
4210;SDS011;2119;48.828;12.396;2023-03-12T11:09:26;7.97;;;6.10;;
4210;SDS011;2119;48.828;12.396;2023-03-12T11:14:28;8.13;;;6.00;;
4210;SDS011;2119;48.828;12.396;2023-03-12T11:19:30;8.33;;;6.10;;
4210;SDS011;2119;48.828;12.396;2023-03-12T11:24:31;9.97;;;7.00;;
4210;SDS011;2119;48.828;12.396;2023-03-12T11:29:37;8.30;;;6.05;;
4210;SDS011;2119;48.828;12.396;2023-03-12T11:34:40;6.23;;;5.20;;
4210;SDS011;2119;48.828;12.396;2023-03-12T12:05:37;6.70;;;5.83;;
4210;SDS011;2119;48.828;12.396;2023-03-12T12:36:21;14.75;;;10.80;;
4210;SDS011;2119;48.828;12.396;2023-03-12T12:41:23;16.70;;;10.73;;
4210;SDS011;2119;48.828;12.396;2023-03-12T12:46:25;11.77;;;9.10;;
4210;SDS011;2119;48.828;12.396;2023-03-12T12:51:32;9.10;;;7.27;;
4210;SDS011;2119;48.828;12.396;2023-03-12T13:01:42;14.80;;;9.00;;
4210;SDS011;2119;48.828;12.396;2023-03-12T13:11:57;12.00;;;9.50;;
4210;SDS011;2119;48.828;12.396;2023-03-12T13:22:29;13.50;;;10.77;;
4210;SDS011;2119;48.828;12.396;2023-03-12T13:27:38;18.37;;;11.63;;
4210;SDS011;2119;48.828;12.396;2023-03-12T13:38:06;12.73;;;9.63;;
4210;SDS011;2119;48.828;12.396;2023-03-12T13:43:12;25.03;;;17.43;;
4210;SDS011;2119;48.828;12.396;2023-03-12T13:48:14;16.70;;;11.87;;
4210;SDS011;2119;48.828;12.396;2023-03-12T13:53:21;18.40;;;14.00;;
4210;SDS011;2119;48.828;12.396;2023-03-12T13:58:23;17.20;;;10.87;;
4210;SDS011;2119;48.828;12.396;2023-03-12T14:03:27;15.40;;;11.90;;
4210;SDS011;2119;48.828;12.396;2023-03-12T14:18:47;12.30;;;10.27;;
4210;SDS011;2119;48.828;12.396;2023-03-12T14:23:50;16.40;;;12.27;;
4210;SDS011;2119;48.828;12.396;2023-03-12T14:28:57;21.93;;;15.30;;
4210;SDS011;2119;48.828;12.396;2023-03-12T14:34:04;21.30;;;14.90;;
4210;SDS011;2119;48.828;12.396;2023-03-12T14:39:49;21.40;;;14.90;;
4210;SDS011;2119;48.828;12.396;2023-03-12T14:44:31;17.53;;;13.00;;
4210;SDS011;2119;48.828;12.396;2023-03-12T14:49:37;16.40;;;12.83;;
4210;SDS011;2119;48.828;12.396;2023-03-12T14:54:39;17.27;;;13.43;;
4210;SDS011;2119;48.828;12.396;2023-03-12T14:59:53;17.50;;;13.87;;
4210;SDS011;2119;48.828;12.396;2023-03-12T15:04:56;16.97;;;12.43;;
4210;SDS011;2119;48.828;12.396;2023-03-12T15:09:59;19.23;;;14.97;;
4210;SDS011;2119;48.828;12.396;2023-03-12T15:15:07;23.80;;;15.53;;
4210;SDS011;2119;48.828;12.396;2023-03-12T15:20:13;25.90;;;15.50;;
4210;SDS011;2119;48.828;12.396;2023-03-12T15:25:36;18.60;;;14.47;;
4210;SDS011;2119;48.828;12.396;2023-03-12T15:30:36;20.30;;;15.03;;
4210;SDS011;2119;48.828;12.396;2023-03-12T15:35:42;22.37;;;14.50;;
4210;SDS011;2119;48.828;12.396;2023-03-12T15:40:49;21.43;;;14.90;;
4210;SDS011;2119;48.828;12.396;2023-03-12T15:46:00;21.27;;;15.40;;
4210;SDS011;2119;48.828;12.396;2023-03-12T15:51:02;19.80;;;14.60;;
4210;SDS011;2119;48.828;12.396;2023-03-12T15:56:25;18.90;;;14.77;;
4210;SDS011;2119;48.828;12.396;2023-03-12T16:01:26;18.43;;;13.83;;
4210;SDS011;2119;48.828;12.396;2023-03-12T16:06:30;21.37;;;15.53;;
4210;SDS011;2119;48.828;12.396;2023-03-12T16:11:32;24.03;;;14.80;;
4210;SDS011;2119;48.828;12.396;2023-03-12T16:16:34;24.00;;;16.27;;
4210;SDS011;2119;48.828;12.396;2023-03-12T16:21:36;17.57;;;13.87;;
4210;SDS011;2119;48.828;12.396;2023-03-12T16:26:43;24.20;;;16.60;;
4210;SDS011;2119;48.828;12.396;2023-03-12T16:31:50;26.00;;;16.10;;
4210;SDS011;2119;48.828;12.396;2023-03-12T16:36:51;24.50;;;17.40;;
4210;SDS011;2119;48.828;12.396;2023-03-12T16:41:52;28.00;;;19.67;;
4210;SDS011;2119;48.828;12.396;2023-03-12T16:46:54;29.53;;;19.20;;
4210;SDS011;2119;48.828;12.396;2023-03-12T16:52:12;31.13;;;20.60;;
4210;SDS011;2119;48.828;12.396;2023-03-12T16:57:19;26.07;;;17.23;;
4210;SDS011;2119;48.828;12.396;2023-03-12T17:02:22;26.20;;;18.50;;
4210;SDS011;2119;48.828;12.396;2023-03-12T17:07:23;36.70;;;25.20;;
4210;SDS011;2119;48.828;12.396;2023-03-12T17:12:26;26.60;;;18.50;;
4210;SDS011;2119;48.828;12.396;2023-03-12T17:17:27;28.93;;;20.37;;
4210;SDS011;2119;48.828;12.396;2023-03-12T17:22:28;26.93;;;18.67;;
4210;SDS011;2119;48.828;12.396;2023-03-12T17:27:29;29.80;;;20.53;;
4210;SDS011;2119;48.828;12.396;2023-03-12T17:32:32;28.20;;;19.30;;
4210;SDS011;2119;48.828;12.396;2023-03-12T17:37:33;23.77;;;17.83;;
4210;SDS011;2119;48.828;12.396;2023-03-12T17:42:37;25.07;;;18.93;;
4210;SDS011;2119;48.828;12.396;2023-03-12T17:47:38;23.27;;;16.67;;
4210;SDS011;2119;48.828;12.396;2023-03-12T17:52:38;27.70;;;18.30;;
4210;SDS011;2119;48.828;12.396;2023-03-12T17:57:39;35.43;;;21.37;;
4210;SDS011;2119;48.828;12.396;2023-03-12T18:02:40;26.17;;;19.47;;
4210;SDS011;2119;48.828;12.396;2023-03-12T18:07:41;29.20;;;20.13;;
4210;SDS011;2119;48.828;12.396;2023-03-12T18:12:42;33.30;;;19.40;;
4210;SDS011;2119;48.828;12.396;2023-03-12T18:17:46;33.67;;;20.47;;
4210;SDS011;2119;48.828;12.396;2023-03-12T18:22:51;28.40;;;19.80;;
4210;SDS011;2119;48.828;12.396;2023-03-12T18:27:59;33.13;;;21.43;;
4210;SDS011;2119;48.828;12.396;2023-03-12T18:33:02;31.67;;;19.43;;
4210;SDS011;2119;48.828;12.396;2023-03-12T18:38:04;35.37;;;23.20;;
4210;SDS011;2119;48.828;12.396;2023-03-12T18:43:07;34.17;;;24.00;;
4210;SDS011;2119;48.828;12.396;2023-03-12T18:48:09;26.13;;;18.83;;
4210;SDS011;2119;48.828;12.396;2023-03-12T18:53:10;29.87;;;20.27;;
4210;SDS011;2119;48.828;12.396;2023-03-12T18:58:10;29.50;;;17.70;;
4210;SDS011;2119;48.828;12.396;2023-03-12T19:03:11;29.87;;;18.23;;
4210;SDS011;2119;48.828;12.396;2023-03-12T19:08:11;28.50;;;20.17;;
4210;SDS011;2119;48.828;12.396;2023-03-12T19:13:17;29.43;;;20.90;;
4210;SDS011;2119;48.828;12.396;2023-03-12T19:18:17;24.33;;;17.20;;
4210;SDS011;2119;48.828;12.396;2023-03-12T19:23:18;28.80;;;19.60;;
4210;SDS011;2119;48.828;12.396;2023-03-12T19:28:18;27.60;;;18.73;;
4210;SDS011;2119;48.828;12.396;2023-03-12T19:33:24;30.90;;;20.60;;
4210;SDS011;2119;48.828;12.396;2023-03-12T19:38:26;31.50;;;19.10;;
4210;SDS011;2119;48.828;12.396;2023-03-12T19:43:32;27.30;;;17.67;;
4210;SDS011;2119;48.828;12.396;2023-03-12T19:48:32;30.50;;;19.40;;
4210;SDS011;2119;48.828;12.396;2023-03-12T19:53:33;30.40;;;19.57;;
4210;SDS011;2119;48.828;12.396;2023-03-12T19:58:36;32.77;;;19.57;;
4210;SDS011;2119;48.828;12.396;2023-03-12T20:03:38;22.10;;;16.03;;
4210;SDS011;2119;48.828;12.396;2023-03-12T20:08:41;24.20;;;16.97;;
4210;SDS011;2119;48.828;12.396;2023-03-12T20:13:47;22.70;;;16.40;;
4210;SDS011;2119;48.828;12.396;2023-03-12T20:18:54;24.03;;;16.47;;
4210;SDS011;2119;48.828;12.396;2023-03-12T20:23:57;22.33;;;16.53;;
4210;SDS011;2119;48.828;12.396;2023-03-12T20:29:02;26.30;;;17.50;;
4210;SDS011;2119;48.828;12.396;2023-03-12T20:34:03;27.63;;;17.37;;
4210;SDS011;2119;48.828;12.396;2023-03-12T20:39:03;32.63;;;18.97;;
4210;SDS011;2119;48.828;12.396;2023-03-12T20:44:04;29.87;;;18.30;;
4210;SDS011;2119;48.828;12.396;2023-03-12T20:49:04;31.98;;;19.08;;
4210;SDS011;2119;48.828;12.396;2023-03-12T20:54:04;29.40;;;19.30;;
4210;SDS011;2119;48.828;12.396;2023-03-12T20:59:05;31.80;;;19.50;;
4210;SDS011;2119;48.828;12.396;2023-03-12T21:04:06;28.90;;;19.27;;
4210;SDS011;2119;48.828;12.396;2023-03-12T21:09:06;27.95;;;18.45;;
4210;SDS011;2119;48.828;12.396;2023-03-12T21:14:06;28.42;;;18.55;;
4210;SDS011;2119;48.828;12.396;2023-03-12T21:19:06;29.63;;;18.90;;
4210;SDS011;2119;48.828;12.396;2023-03-12T21:24:07;30.75;;;18.00;;
4210;SDS011;2119;48.828;12.396;2023-03-12T21:29:07;33.30;;;19.90;;
4210;SDS011;2119;48.828;12.396;2023-03-12T21:34:07;30.90;;;19.20;;
4210;SDS011;2119;48.828;12.396;2023-03-12T21:39:08;42.00;;;23.42;;
4210;SDS011;2119;48.828;12.396;2023-03-12T21:44:08;35.30;;;20.77;;
4210;SDS011;2119;48.828;12.396;2023-03-12T21:49:08;29.90;;;19.77;;
4210;SDS011;2119;48.828;12.396;2023-03-12T21:54:09;32.33;;;21.60;;
4210;SDS011;2119;48.828;12.396;2023-03-12T21:59:09;32.37;;;19.10;;
4210;SDS011;2119;48.828;12.396;2023-03-12T22:04:09;31.70;;;18.70;;
4210;SDS011;2119;48.828;12.396;2023-03-12T22:09:10;28.03;;;18.00;;
4210;SDS011;2119;48.828;12.396;2023-03-12T22:14:10;34.90;;;20.05;;
4210;SDS011;2119;48.828;12.396;2023-03-12T22:19:10;30.27;;;20.02;;
4210;SDS011;2119;48.828;12.396;2023-03-12T22:24:11;34.13;;;20.30;;
4210;SDS011;2119;48.828;12.396;2023-03-12T22:29:12;36.38;;;20.13;;
4210;SDS011;2119;48.828;12.396;2023-03-12T22:34:12;31.15;;;19.45;;
4210;SDS011;2119;48.828;12.396;2023-03-12T22:39:12;30.65;;;18.65;;
4210;SDS011;2119;48.828;12.396;2023-03-12T22:44:12;31.08;;;18.88;;
4210;SDS011;2119;48.828;12.396;2023-03-12T22:49:13;30.50;;;18.88;;
4210;SDS011;2119;48.828;12.396;2023-03-12T22:54:13;31.00;;;20.17;;
4210;SDS011;2119;48.828;12.396;2023-03-12T22:59:13;28.60;;;18.63;;
4210;SDS011;2119;48.828;12.396;2023-03-12T23:04:14;31.90;;;19.70;;
4210;SDS011;2119;48.828;12.396;2023-03-12T23:09:14;30.40;;;19.70;;
4210;SDS011;2119;48.828;12.396;2023-03-12T23:14:14;27.70;;;19.20;;
4210;SDS011;2119;48.828;12.396;2023-03-12T23:19:14;37.00;;;19.27;;
4210;SDS011;2119;48.828;12.396;2023-03-12T23:24:15;30.10;;;18.97;;
4210;SDS011;2119;48.828;12.396;2023-03-12T23:29:15;29.67;;;18.37;;
4210;SDS011;2119;48.828;12.396;2023-03-12T23:34:15;30.52;;;19.55;;
4210;SDS011;2119;48.828;12.396;2023-03-12T23:39:16;26.30;;;17.30;;
4210;SDS011;2119;48.828;12.396;2023-03-12T23:44:16;27.02;;;18.52;;
4210;SDS011;2119;48.828;12.396;2023-03-12T23:49:16;26.05;;;17.92;;
4210;SDS011;2119;48.828;12.396;2023-03-12T23:54:16;29.20;;;18.88;;
4210;SDS011;2119;48.828;12.396;2023-03-12T23:59:17;30.27;;;18.42;;
